Time;durP1;ratioP1;P1;durP2;ratioP2;P2;SDS_P1;SDS_P2;PMS_P1;PMS_P2;Temp;Humidity;BMP_temperature;BMP_pressure;BME280_temperature;BME280_humidity;BME280_pressure;Samples;Min_cycle;Max_cycle;Signal;HPM_P1;HPM_P2
2022/01/19 00:00:59;;;;;;;22.00;10.23;;;5.20;99.90;;;;;;4888406;29;20192;-88
2022/01/19 00:03:25;;;;;;;26.87;10.27;;;5.20;99.90;;;;;;4883668;29;20235;-90
2022/01/19 00:05:51;;;;;;;21.60;9.93;;;5.20;99.90;;;;;;4883430;29;20219;-91
2022/01/19 00:08:21;;;;;;;29.97;11.00;;;5.20;99.90;;;;;;4900996;29;20187;-91
2022/01/19 00:10:49;;;;;;;23.97;9.73;;;5.10;99.90;;;;;;4913043;29;20679;-91
2022/01/19 00:13:15;;;;;;;23.27;9.73;;;5.10;99.90;;;;;;4901782;29;20246;-90
2022/01/19 00:15:41;;;;;;;25.97;10.50;;;5.20;99.90;;;;;;4901179;29;20514;-90
2022/01/19 00:18:06;;;;;;;25.33;10.03;;;5.20;99.90;;;;;;4901362;29;20226;-90
2022/01/19 00:20:34;;;;;;;26.90;10.27;;;5.10;99.90;;;;;;4901856;29;20191;-90
2022/01/19 00:23:01;;;;;;;26.87;9.70;;;5.10;99.90;;;;;;4900823;29;20179;-91
2022/01/19 00:25:27;;;;;;;21.90;9.20;;;5.10;99.90;;;;;;4903014;29;20246;-91
2022/01/19 00:27:53;;;;;;;23.07;9.33;;;5.00;99.90;;;;;;4901460;29;20676;-90
2022/01/19 00:30:19;;;;;;;24.07;9.13;;;5.00;99.90;;;;;;4901764;29;20203;-91
2022/01/19 00:32:45;;;;;;;18.77;7.97;;;5.00;99.90;;;;;;4901486;29;20619;-90
2022/01/19 00:35:11;;;;;;;19.50;8.47;;;5.00;99.90;;;;;;4893876;29;20195;-91
2022/01/19 00:37:39;;;;;;;22.00;9.07;;;5.00;99.90;;;;;;4901062;29;20195;-91
2022/01/19 00:40:06;;;;;;;25.37;8.57;;;4.90;99.90;;;;;;4900818;29;20218;-91
2022/01/19 00:42:32;;;;;;;21.87;8.00;;;4.90;99.90;;;;;;4901370;29;20615;-90
2022/01/19 00:44:58;;;;;;;18.10;7.87;;;4.90;99.90;;;;;;4900769;29;20214;-91
2022/01/19 00:47:24;;;;;;;23.10;8.57;;;4.90;99.90;;;;;;4900254;29;20187;-91
2022/01/19 00:49:50;;;;;;;19.97;7.33;;;4.90;99.90;;;;;;4900431;29;20187;-91
2022/01/19 00:52:15;;;;;;;19.33;6.97;;;4.90;99.90;;;;;;4901332;29;20188;-91
2022/01/19 00:54:41;;;;;;;22.17;7.43;;;4.90;99.90;;;;;;4901239;29;20223;-91
2022/01/19 00:57:09;;;;;;;14.43;7.03;;;4.90;99.90;;;;;;4901322;29;20199;-91
2022/01/19 00:59:35;;;;;;;23.53;8.37;;;4.90;99.90;;;;;;4916929;29;20183;-91
2022/01/19 01:02:01;;;;;;;17.20;7.37;;;4.80;99.90;;;;;;4897278;29;20283;-91
2022/01/19 01:04:28;;;;;;;24.37;8.43;;;4.90;99.90;;;;;;4900914;29;20607;-90
2022/01/19 01:06:54;;;;;;;20.10;8.60;;;4.80;99.90;;;;;;4900364;29;20194;-90
2022/01/19 01:09:19;;;;;;;24.10;9.00;;;4.80;99.90;;;;;;4900902;29;20230;-92
2022/01/19 01:11:59;;;;;;;20.77;8.57;;;4.80;99.90;;;;;;4900252;29;20210;-91
2022/01/19 01:20:03;;;;;;;21.17;9.50;;;4.80;99.90;;;;;;4902435;29;20650;-91
2022/01/19 01:22:29;;;;;;;24.70;10.23;;;4.80;99.90;;;;;;4900575;29;20182;-90
2022/01/19 01:24:54;;;;;;;25.93;10.67;;;4.80;99.90;;;;;;4900352;29;20219;-90
2022/01/19 01:27:20;;;;;;;26.33;10.97;;;4.80;99.90;;;;;;4900638;29;20186;-91
2022/01/19 01:29:46;;;;;;;19.50;10.10;;;4.80;99.90;;;;;;4900112;29;20277;-90
2022/01/19 01:32:12;;;;;;;22.20;10.13;;;4.80;99.90;;;;;;4900121;29;20269;-90
2022/01/19 01:34:37;;;;;;;25.67;10.13;;;4.70;99.90;;;;;;4900983;29;20269;-90
2022/01/19 01:37:03;;;;;;;21.83;9.73;;;4.80;99.90;;;;;;4899963;29;20539;-90
2022/01/19 01:39:29;;;;;;;26.73;10.43;;;4.80;99.90;;;;;;4900126;29;20553;-91
2022/01/19 01:41:55;;;;;;;24.77;10.57;;;4.70;99.90;;;;;;4900266;29;20194;-91
2022/01/19 01:44:21;;;;;;;24.50;9.97;;;4.70;99.90;;;;;;4900112;29;20210;-91
2022/01/19 01:46:51;;;;;;;27.47;10.53;;;4.70;99.90;;;;;;4900191;29;20198;-91
2022/01/19 01:49:25;;;;;;;20.93;10.43;;;4.70;99.90;;;;;;4900285;29;20619;-91
2022/01/19 01:54:35;;;;;;;18.07;9.30;;;4.70;99.90;;;;;;4894759;29;20194;-90
2022/01/19 01:57:01;;;;;;;23.37;9.87;;;4.70;99.90;;;;;;4900260;29;20183;-90
2022/01/19 01:59:26;;;;;;;28.63;9.60;;;4.70;99.90;;;;;;4900304;29;20187;-91
2022/01/19 02:01:52;;;;;;;27.00;9.27;;;4.60;99.90;;;;;;4899944;29;20194;-90
2022/01/19 02:04:22;;;;;;;21.80;9.30;;;4.60;99.90;;;;;;4899267;29;20219;-90
2022/01/19 02:09:37;;;;;;;19.43;8.53;;;4.50;99.90;;;;;;4901417;29;20226;-90
2022/01/19 02:23:24;;;;;;;17.33;7.83;;;3.90;99.90;;;;;;4959712;29;20235;-92
2022/01/19 02:25:55;;;;;;;20.23;8.13;;;3.90;99.90;;;;;;4957071;28;20201;-93
2022/01/19 02:41:46;;;;;;;19.83;7.90;;;3.60;99.90;;;;;;4939965;29;20205;-92
2022/01/19 02:44:16;;;;;;;18.37;7.77;;;3.50;99.90;;;;;;4938401;29;20200;-92
2022/01/19 02:49:19;;;;;;;22.93;9.00;;;3.40;99.90;;;;;;4939490;29;20158;-94
2022/01/19 02:51:47;;;;;;;21.40;8.90;;;3.40;99.90;;;;;;4939818;29;20174;-92
2022/01/19 02:54:16;;;;;;;19.47;7.70;;;3.30;99.90;;;;;;4938781;29;20181;-93
2022/01/19 02:56:46;;;;;;;20.27;8.40;;;3.30;99.90;;;;;;4938628;29;20177;-92
2022/01/19 02:59:20;;;;;;;17.43;7.77;;;3.30;99.90;;;;;;4939054;29;20261;-92
2022/01/19 03:09:47;;;;;;;22.30;8.90;;;3.10;99.90;;;;;;4940425;29;20178;-92
2022/01/19 03:12:14;;;;;;;19.50;8.90;;;3.10;99.90;;;;;;4938671;29;20181;-93
2022/01/19 03:14:40;;;;;;;19.03;9.00;;;3.10;99.90;;;;;;4938236;29;20257;-91
2022/01/19 03:17:07;;;;;;;19.23;9.27;;;3.00;99.90;;;;;;4938405;29;20260;-92
2022/01/19 03:19:35;;;;;;;26.00;9.33;;;3.00;99.90;;;;;;4938350;29;20178;-93
2022/01/19 03:22:01;;;;;;;24.00;8.80;;;3.10;99.90;;;;;;4938311;29;20192;-93
2022/01/19 03:24:27;;;;;;;19.23;8.20;;;3.10;99.90;;;;;;4939531;29;20198;-92
2022/01/19 03:26:53;;;;;;;18.63;8.43;;;3.00;99.90;;;;;;4938187;29;20213;-93
2022/01/19 03:29:19;;;;;;;20.53;8.47;;;3.00;99.90;;;;;;4938096;29;20194;-92
2022/01/19 03:31:45;;;;;;;22.07;9.33;;;3.10;99.90;;;;;;4938113;29;20284;-92
2022/01/19 03:34:12;;;;;;;19.03;8.47;;;3.10;99.90;;;;;;4938214;29;20229;-92
2022/01/19 03:36:38;;;;;;;18.20;8.50;;;3.10;99.90;;;;;;4937841;29;20190;-93
2022/01/19 03:39:04;;;;;;;13.80;7.80;;;3.00;99.90;;;;;;4937785;29;20186;-93
2022/01/19 03:41:30;;;;;;;22.93;9.07;;;3.00;99.90;;;;;;4937816;29;20273;-92
2022/01/19 03:43:56;;;;;;;20.97;8.60;;;2.90;99.90;;;;;;4937397;29;20221;-93
2022/01/19 03:46:29;;;;;;;22.47;8.50;;;2.90;99.90;;;;;;4937539;29;20185;-93
2022/01/19 03:48:57;;;;;;;16.30;8.47;;;2.90;99.90;;;;;;4937535;29;20193;-93
2022/01/19 03:51:23;;;;;;;18.80;8.20;;;2.80;99.90;;;;;;4937626;29;20189;-92
2022/01/19 03:53:49;;;;;;;16.33;8.20;;;2.80;99.90;;;;;;4938420;29;20541;-93
2022/01/19 03:56:16;;;;;;;20.00;8.87;;;2.80;99.90;;;;;;4937336;29;20269;-92
2022/01/19 03:58:44;;;;;;;14.90;8.07;;;2.70;99.90;;;;;;4937063;29;20288;-92
2022/01/19 04:01:10;;;;;;;18.87;8.50;;;2.70;99.90;;;;;;4937441;29;20213;-92
2022/01/19 04:09:21;;;;;;;22.80;10.17;;;2.60;99.90;;;;;;4917063;29;20163;-93
2022/01/19 04:11:46;;;;;;;22.33;9.87;;;2.60;99.90;;;;;;4928020;29;20194;-93
2022/01/19 04:14:28;;;;;;;20.20;9.37;;;2.60;99.90;;;;;;4937203;29;20196;-94
2022/01/19 04:17:04;;;;;;;19.80;9.67;;;2.50;99.90;;;;;;4937106;29;20289;-92
2022/01/19 04:19:33;;;;;;;19.83;8.77;;;2.50;99.90;;;;;;4936327;29;20624;-92
2022/01/19 04:22:02;;;;;;;19.03;9.20;;;2.40;99.90;;;;;;4936474;29;20189;-92
2022/01/19 04:24:28;;;;;;;22.77;9.17;;;2.40;99.90;;;;;;4936285;29;20205;-92
2022/01/19 04:29:39;;;;;;;16.97;8.50;;;2.40;99.90;;;;;;4938903;29;20250;-92
2022/01/19 04:32:11;;;;;;;20.10;10.00;;;2.40;99.90;;;;;;4936892;29;20178;-93
2022/01/19 04:34:39;;;;;;;25.70;9.37;;;2.40;99.90;;;;;;4936923;29;20186;-92
2022/01/19 05:06:37;;;;;;;18.77;9.30;;;2.10;99.90;;;;;;4940618;29;20615;-93
2022/01/19 05:09:11;;;;;;;15.97;8.40;;;2.10;99.90;;;;;;4939461;29;20177;-92
2022/01/19 05:14:21;;;;;;;18.93;8.53;;;2.00;99.90;;;;;;4939982;29;20233;-92
2022/01/19 05:16:47;;;;;;;20.27;8.93;;;2.00;99.90;;;;;;4938687;29;20630;-92
2022/01/19 05:19:13;;;;;;;24.27;9.40;;;2.00;99.90;;;;;;4939088;29;20245;-92
2022/01/19 05:21:39;;;;;;;24.33;9.50;;;2.00;99.90;;;;;;4938984;29;20186;-92
2022/01/19 05:24:07;;;;;;;21.03;10.30;;;2.00;99.90;;;;;;4939132;29;20286;-93
2022/01/19 05:26:35;;;;;;;21.47;8.83;;;2.00;99.90;;;;;;4938990;29;20241;-92
2022/01/19 05:29:01;;;;;;;23.10;10.17;;;1.90;99.90;;;;;;4938703;29;20220;-91
2022/01/19 05:31:26;;;;;;;21.20;9.90;;;1.80;99.90;;;;;;4938953;29;20210;-92
2022/01/19 05:33:53;;;;;;;21.30;9.80;;;1.80;99.90;;;;;;4939492;29;20661;-93
2022/01/19 05:36:19;;;;;;;23.73;11.03;;;1.70;99.90;;;;;;4939463;29;20182;-91
2022/01/19 05:38:45;;;;;;;24.60;10.80;;;1.70;99.90;;;;;;4939443;29;20198;-92
2022/01/19 05:41:10;;;;;;;22.67;10.43;;;1.80;99.90;;;;;;4939015;29;20217;-93
2022/01/19 05:43:36;;;;;;;28.90;10.97;;;1.80;99.90;;;;;;4939488;29;20229;-92
2022/01/19 05:46:02;;;;;;;26.80;11.30;;;1.70;99.90;;;;;;4939147;29;20286;-93
2022/01/19 05:48:28;;;;;;;25.60;10.27;;;1.80;99.90;;;;;;4938848;29;20684;-93
2022/01/19 05:50:53;;;;;;;18.77;10.10;;;1.80;99.90;;;;;;4937845;29;20178;-92
2022/01/19 05:53:19;;;;;;;25.60;9.67;;;1.80;99.90;;;;;;4939560;29;20197;-93
2022/01/19 05:55:45;;;;;;;20.57;9.63;;;1.80;99.90;;;;;;4939033;29;20182;-93
2022/01/19 05:58:11;;;;;;;18.47;9.23;;;1.80;99.90;;;;;;4939088;29;20217;-92
2022/01/19 06:00:37;;;;;;;16.03;9.30;;;1.80;99.90;;;;;;4939568;29;20237;-93
2022/01/19 06:03:04;;;;;;;16.60;9.10;;;1.70;99.90;;;;;;4939595;29;20182;-91
2022/01/19 06:05:30;;;;;;;19.50;9.13;;;1.70;99.90;;;;;;4939627;29;20245;-91
2022/01/19 06:08:17;;;;;;;19.27;9.40;;;1.70;99.90;;;;;;4939620;29;20201;-92
2022/01/19 06:10:43;;;;;;;17.10;8.67;;;1.70;99.90;;;;;;4939992;29;20178;-92
2022/01/19 06:13:12;;;;;;;18.97;8.50;;;1.60;99.90;;;;;;4940263;29;20210;-93
2022/01/19 06:15:38;;;;;;;20.17;10.13;;;1.50;99.90;;;;;;4940503;29;20181;-94
2022/01/19 06:18:05;;;;;;;19.93;8.93;;;1.50;99.90;;;;;;4939770;29;20238;-94
2022/01/19 06:20:31;;;;;;;15.47;8.30;;;1.50;99.90;;;;;;4940469;29;20190;-92
2022/01/19 06:22:56;;;;;;;19.33;9.07;;;1.50;99.90;;;;;;4940291;29;20188;-92
2022/01/19 06:25:22;;;;;;;19.13;9.30;;;1.50;99.90;;;;;;4940976;29;20232;-92
2022/01/19 06:27:48;;;;;;;16.77;8.47;;;1.50;99.90;;;;;;4940693;29;20713;-92
2022/01/19 06:30:14;;;;;;;17.53;9.37;;;1.50;99.90;;;;;;4940855;29;20185;-93
2022/01/19 06:32:40;;;;;;;25.83;10.07;;;1.50;99.90;;;;;;4939961;29;20205;-92
2022/01/19 06:35:07;;;;;;;22.73;10.43;;;1.40;99.90;;;;;;4940886;29;20178;-92
2022/01/19 06:37:33;;;;;;;23.27;10.20;;;1.40;99.90;;;;;;4939796;29;20206;-92
2022/01/19 06:40:00;;;;;;;16.90;9.23;;;1.50;99.90;;;;;;4940873;29;20186;-91
2022/01/19 06:42:26;;;;;;;17.27;9.10;;;1.40;99.90;;;;;;4940039;29;20591;-93
2022/01/19 06:44:53;;;;;;;14.70;8.57;;;1.50;99.90;;;;;;4939383;29;20209;-93
2022/01/19 06:47:21;;;;;;;18.87;10.43;;;1.50;99.90;;;;;;4939317;29;20208;-92
2022/01/19 06:49:46;;;;;;;21.20;10.23;;;1.50;99.90;;;;;;4939949;29;20201;-92
2022/01/19 06:52:12;;;;;;;21.53;10.40;;;1.50;99.90;;;;;;4939759;29;20173;-93
2022/01/19 06:54:39;;;;;;;19.60;9.70;;;1.40;99.90;;;;;;4939067;29;20652;-91
2022/01/19 06:57:05;;;;;;;22.60;10.53;;;1.40;99.90;;;;;;4938942;29;20205;-91
2022/01/19 06:59:31;;;;;;;23.73;10.77;;;1.30;99.90;;;;;;4939605;29;20240;-91
2022/01/19 07:01:57;;;;;;;25.10;10.77;;;1.20;99.90;;;;;;4940003;29;20184;-94
2022/01/19 07:04:23;;;;;;;23.83;9.57;;;1.30;99.90;;;;;;4939591;29;20206;-93
2022/01/19 07:06:49;;;;;;;23.90;9.67;;;1.30;99.90;;;;;;4938366;29;20210;-91
2022/01/19 07:09:15;;;;;;;25.97;9.73;;;1.30;99.90;;;;;;4939745;29;20282;-92
2022/01/19 07:11:41;;;;;;;22.20;9.93;;;1.30;99.90;;;;;;4940123;29;20182;-93
2022/01/19 07:14:08;;;;;;;21.40;9.17;;;1.30;99.90;;;;;;4939175;29;20619;-93
2022/01/19 07:16:34;;;;;;;19.13;9.30;;;1.20;99.90;;;;;;4937288;29;20630;-93
2022/01/19 07:19:00;;;;;;;22.20;9.90;;;1.20;99.90;;;;;;4937163;29;20638;-93
2022/01/19 07:21:26;;;;;;;20.13;10.10;;;1.10;99.90;;;;;;4937163;29;20177;-94
2022/01/19 07:23:52;;;;;;;21.30;9.07;;;1.10;99.90;;;;;;4936723;29;20170;-93
2022/01/19 07:26:18;;;;;;;20.77;10.23;;;1.10;99.90;;;;;;4937325;29;20240;-91
2022/01/19 07:28:43;;;;;;;22.07;9.60;;;1.10;99.90;;;;;;4937843;29;20235;-93
2022/01/19 07:31:09;;;;;;;23.43;9.70;;;1.10;99.90;;;;;;4938579;29;20178;-92
2022/01/19 07:33:36;;;;;;;23.00;10.27;;;1.10;99.90;;;;;;4937264;29;20236;-92
2022/01/19 07:36:02;;;;;;;25.30;11.27;;;1.10;99.90;;;;;;4937136;29;20186;-91
2022/01/19 07:38:28;;;;;;;24.13;10.60;;;1.20;99.90;;;;;;4936564;29;20206;-92
2022/01/19 07:40:55;;;;;;;20.70;10.63;;;1.10;99.90;;;;;;4936620;29;20213;-91
2022/01/19 07:43:21;;;;;;;17.07;10.07;;;1.10;99.90;;;;;;4936581;29;20407;-93
2022/01/19 07:45:47;;;;;;;21.77;11.07;;;1.10;99.90;;;;;;4936642;29;20663;-93
2022/01/19 07:48:13;;;;;;;21.33;10.60;;;1.20;99.90;;;;;;4936289;29;20205;-93
2022/01/19 07:50:39;;;;;;;22.30;10.73;;;1.20;99.90;;;;;;4936155;29;20642;-93
2022/01/19 07:53:05;;;;;;;24.10;11.10;;;1.20;99.90;;;;;;4936605;29;20174;-92
2022/01/19 07:55:32;;;;;;;20.07;10.53;;;1.20;99.90;;;;;;4936490;29;20257;-94
2022/01/19 07:57:58;;;;;;;20.23;10.77;;;1.30;99.90;;;;;;4936107;29;20217;-92
2022/01/19 08:00:24;;;;;;;20.73;10.33;;;1.30;99.90;;;;;;4936389;29;20178;-93
2022/01/19 08:02:49;;;;;;;17.20;10.23;;;1.30;99.90;;;;;;4936246;29;20281;-93
2022/01/19 08:05:18;;;;;;;21.20;10.43;;;1.40;99.90;;;;;;4936021;29;20617;-92
2022/01/19 08:07:44;;;;;;;17.20;9.20;;;1.50;99.90;;;;;;4936111;29;20677;-92
2022/01/19 08:10:12;;;;;;;18.43;9.77;;;1.50;99.90;;;;;;4936107;29;20206;-92
2022/01/19 08:12:38;;;;;;;20.30;9.93;;;1.50;99.90;;;;;;4936470;29;20174;-93
2022/01/19 08:15:04;;;;;;;19.33;10.13;;;1.60;99.90;;;;;;4939647;29;20245;-92
2022/01/19 08:17:31;;;;;;;15.90;9.27;;;1.60;99.90;;;;;;4940122;29;20241;-92
2022/01/19 08:19:57;;;;;;;18.30;9.77;;;1.60;99.90;;;;;;4941336;29;20177;-92
2022/01/19 08:22:24;;;;;;;15.10;9.20;;;1.60;99.90;;;;;;4942180;29;20186;-93
2022/01/19 08:24:50;;;;;;;15.13;9.93;;;1.60;99.90;;;;;;4940466;29;20678;-94
2022/01/19 08:27:17;;;;;;;15.23;8.67;;;1.60;99.90;;;;;;4940474;29;20202;-94
2022/01/19 08:29:43;;;;;;;20.17;9.93;;;1.60;99.90;;;;;;4939955;29;20232;-93
2022/01/19 08:32:09;;;;;;;18.80;9.63;;;1.70;99.90;;;;;;4940803;29;20170;-92
2022/01/19 08:34:36;;;;;;;19.37;9.90;;;1.70;99.90;;;;;;4940279;29;20184;-93
2022/01/19 08:37:02;;;;;;;20.50;10.77;;;1.70;99.90;;;;;;4939186;29;20205;-92
2022/01/19 08:39:31;;;;;;;17.70;10.27;;;1.70;99.90;;;;;;4940030;29;20189;-94
2022/01/19 08:41:56;;;;;;;19.77;9.60;;;1.70;99.90;;;;;;4940011;29;20185;-92
2022/01/19 08:44:25;;;;;;;20.30;9.83;;;1.70;99.90;;;;;;4939832;29;20205;-94
2022/01/19 08:46:51;;;;;;;16.50;9.50;;;1.70;99.90;;;;;;4939737;29;20728;-94
2022/01/19 08:49:17;;;;;;;16.07;9.47;;;1.80;99.90;;;;;;4939902;29;20192;-91
2022/01/19 08:51:43;;;;;;;18.37;10.43;;;1.90;99.90;;;;;;4939555;29;20181;-91
2022/01/19 08:54:10;;;;;;;15.73;9.50;;;1.90;99.90;;;;;;4940207;29;20185;-91
2022/01/19 08:56:36;;;;;;;16.03;9.80;;;1.90;99.90;;;;;;4939203;29;20181;-92
2022/01/19 08:59:02;;;;;;;16.50;9.47;;;1.90;99.90;;;;;;4939220;29;20174;-91
2022/01/19 09:01:28;;;;;;;16.03;9.53;;;2.00;99.90;;;;;;4938951;29;20257;-93
2022/01/19 09:03:54;;;;;;;18.93;10.93;;;2.00;99.90;;;;;;4938445;29;20591;-93
2022/01/19 09:06:20;;;;;;;19.53;10.33;;;2.10;99.90;;;;;;4940226;29;20220;-92
2022/01/19 09:08:45;;;;;;;19.00;9.93;;;2.10;99.90;;;;;;4940709;29;20210;-91
2022/01/19 09:11:12;;;;;;;19.57;10.03;;;2.20;99.90;;;;;;4941981;29;20630;-92
2022/01/19 09:13:38;;;;;;;20.50;10.70;;;2.30;99.90;;;;;;4942628;29;20189;-91
2022/01/19 09:16:06;;;;;;;15.57;10.17;;;2.30;99.90;;;;;;4942690;29;20210;-94
2022/01/19 09:18:33;;;;;;;15.67;9.97;;;2.40;99.90;;;;;;4942973;29;20265;-91
2022/01/19 09:20:59;;;;;;;16.37;11.23;;;2.50;99.90;;;;;;4942458;29;20171;-93
2022/01/19 09:23:25;;;;;;;14.27;11.40;;;2.50;99.90;;;;;;4943520;29;20178;-92
2022/01/19 09:25:51;;;;;;;16.13;11.80;;;2.50;99.90;;;;;;4942295;29;20293;-93
2022/01/19 09:28:17;;;;;;;13.57;11.30;;;2.70;99.90;;;;;;4942250;29;20246;-93
2022/01/19 09:30:45;;;;;;;15.10;12.00;;;2.70;99.90;;;;;;4940981;29;20607;-93
2022/01/19 09:33:19;;;;;;;13.23;11.23;;;2.80;99.90;;;;;;4939859;29;20170;-93
2022/01/19 09:36:05;;;;;;;13.27;11.03;;;3.00;99.90;;;;;;4940679;29;20174;-92
2022/01/19 09:38:36;;;;;;;13.67;11.07;;;3.10;99.90;;;;;;4940895;29;20229;-94
2022/01/19 09:41:03;;;;;;;13.20;11.17;;;3.10;99.90;;;;;;4940457;29;20241;-94
2022/01/19 09:43:30;;;;;;;14.50;11.30;;;3.10;99.90;;;;;;4940687;29;20197;-93
2022/01/19 09:45:59;;;;;;;14.53;11.70;;;3.10;99.90;;;;;;4940499;29;20201;-94
2022/01/19 09:48:26;;;;;;;14.27;11.10;;;3.10;99.90;;;;;;4940779;29;20603;-93
2022/01/19 09:50:54;;;;;;;14.17;11.60;;;3.20;99.90;;;;;;4940409;29;20178;-93
2022/01/19 09:53:20;;;;;;;14.93;10.77;;;3.20;99.90;;;;;;4939847;29;20213;-93
2022/01/19 09:55:47;;;;;;;14.67;11.10;;;3.20;99.90;;;;;;4940552;29;20555;-95
2022/01/19 09:58:14;;;;;;;12.47;10.83;;;3.20;99.90;;;;;;4939522;29;20299;-93
2022/01/19 10:00:40;;;;;;;12.77;10.60;;;3.20;99.90;;;;;;4939508;29;20183;-94
2022/01/19 10:03:17;;;;;;;13.70;10.93;;;3.20;99.90;;;;;;4939591;29;20181;-94
2022/01/19 10:06:09;;;;;;;16.50;10.87;;;3.20;99.90;;;;;;4939953;29;20292;-93
2022/01/19 10:08:41;;;;;;;14.90;11.57;;;3.20;99.90;;;;;;4939311;29;20201;-93
2022/01/19 10:17:02;;;;;;;10.90;9.60;;;3.30;99.90;;;;;;4940485;29;20190;-93
2022/01/19 10:19:34;;;;;;;11.70;9.77;;;3.30;99.90;;;;;;4940321;29;20184;-93
2022/01/19 10:22:25;;;;;;;12.40;10.50;;;3.30;99.90;;;;;;4940028;29;20185;-93
2022/01/19 10:25:03;;;;;;;13.33;11.07;;;3.30;99.90;;;;;;4939789;29;20206;-94
2022/01/19 10:27:37;;;;;;;13.03;10.30;;;3.30;99.90;;;;;;4939771;29;20198;-92
2022/01/19 10:30:04;;;;;;;10.93;9.70;;;3.30;99.90;;;;;;4939942;29;20232;-94
2022/01/19 10:32:35;;;;;;;9.57;8.57;;;3.40;99.90;;;;;;4940061;29;20182;-94
2022/01/19 10:35:24;;;;;;;10.13;8.60;;;3.40;99.90;;;;;;4939288;29;20185;-93
2022/01/19 10:38:12;;;;;;;9.57;8.00;;;3.40;99.90;;;;;;4939010;29;20198;-92
2022/01/19 10:40:41;;;;;;;9.40;8.03;;;3.40;99.90;;;;;;4939254;29;20185;-92
2022/01/19 10:43:34;;;;;;;8.77;7.87;;;3.40;99.90;;;;;;4938766;29;20201;-94
2022/01/19 10:46:22;;;;;;;7.83;7.03;;;3.40;99.90;;;;;;4930443;29;20226;-93
2022/01/19 10:48:48;;;;;;;10.40;7.37;;;3.40;99.90;;;;;;4938518;29;20206;-94
2022/01/19 10:51:13;;;;;;;9.70;7.17;;;3.40;99.90;;;;;;4938794;29;20184;-93
2022/01/19 10:53:42;;;;;;;7.70;6.90;;;3.40;99.90;;;;;;4938924;29;20229;-93
2022/01/19 10:56:29;;;;;;;7.30;6.60;;;3.50;99.90;;;;;;4938590;29;20272;-94
2022/01/19 10:59:06;;;;;;;7.10;6.30;;;3.50;99.90;;;;;;4938774;29;20194;-93
2022/01/19 11:01:48;;;;;;;7.90;7.00;;;3.50;99.90;;;;;;4939076;29;20185;-94
2022/01/19 11:04:29;;;;;;;9.57;7.17;;;3.50;99.90;;;;;;4938347;29;20236;-92
2022/01/19 11:07:07;;;;;;;9.33;6.30;;;3.50;99.90;;;;;;4938582;29;20292;-91
2022/01/19 11:09:57;;;;;;;6.57;5.90;;;3.70;99.90;;;;;;4938537;29;20177;-94
2022/01/19 11:12:28;;;;;;;7.00;6.30;;;3.70;99.90;;;;;;4938279;29;20185;-94
2022/01/19 11:14:56;;;;;;;6.70;5.47;;;3.70;99.90;;;;;;4938806;29;20182;-93
2022/01/19 11:17:22;;;;;;;7.27;5.67;;;3.70;99.90;;;;;;4938011;29;20237;-93
2022/01/19 11:19:49;;;;;;;6.67;5.17;;;3.70;99.90;;;;;;4939115;29;20642;-94
2022/01/19 11:22:50;;;;;;;6.40;5.43;;;3.80;99.90;;;;;;4938430;29;20260;-93
2022/01/19 11:25:33;;;;;;;6.40;5.20;;;3.70;99.90;;;;;;4912132;29;20283;-93
2022/01/19 11:28:00;;;;;;;5.60;4.90;;;3.70;99.90;;;;;;4938223;29;20201;-93
2022/01/19 11:30:32;;;;;;;5.50;4.90;;;3.70;99.90;;;;;;4938099;29;20170;-95
2022/01/19 11:33:24;;;;;;;6.07;4.70;;;3.80;99.90;;;;;;4938457;29;20233;-93
2022/01/19 11:36:00;;;;;;;5.77;4.93;;;3.90;99.90;;;;;;4937833;29;20180;-94
2022/01/19 11:38:47;;;;;;;5.93;4.60;;;3.80;99.90;;;;;;4938241;29;20284;-94
2022/01/19 11:41:13;;;;;;;6.40;5.30;;;3.80;99.90;;;;;;4938225;29;20178;-93
2022/01/19 11:43:54;;;;;;;5.90;4.73;;;3.80;99.90;;;;;;4938253;29;20185;-93
2022/01/19 11:46:31;;;;;;;5.37;4.87;;;3.80;99.90;;;;;;4938148;29;20209;-92
2022/01/19 11:48:59;;;;;;;5.60;5.00;;;3.80;99.90;;;;;;4939127;29;20177;-94
2022/01/19 11:51:31;;;;;;;5.70;4.97;;;3.70;99.90;;;;;;4942180;29;20204;-94
2022/01/19 11:54:05;;;;;;;5.57;4.80;;;3.80;99.90;;;;;;4942894;29;20182;-93
2022/01/19 11:56:33;;;;;;;5.53;5.03;;;3.70;99.90;;;;;;4941450;29;20246;-93
2022/01/19 11:59:08;;;;;;;7.43;5.17;;;3.80;99.90;;;;;;4942126;29;20205;-94
2022/01/19 12:01:36;;;;;;;6.27;4.97;;;3.90;99.90;;;;;;4941985;29;20642;-93
2022/01/19 12:04:22;;;;;;;7.03;5.30;;;3.80;99.90;;;;;;4941913;29;20175;-92
2022/01/19 12:06:48;;;;;;;5.10;4.60;;;3.80;99.90;;;;;;4942000;29;20170;-93
2022/01/19 12:09:16;;;;;;;5.33;4.60;;;3.90;99.90;;;;;;4942266;29;20542;-93
2022/01/19 12:11:53;;;;;;;6.87;5.20;;;3.80;99.90;;;;;;4941515;29;20205;-94
2022/01/19 12:14:22;;;;;;;5.40;4.90;;;3.80;99.90;;;;;;4941263;29;20594;-93
2022/01/19 12:17:16;;;;;;;5.17;4.67;;;3.80;99.90;;;;;;4941294;29;20174;-92
2022/01/19 12:19:43;;;;;;;5.20;4.70;;;3.80;99.90;;;;;;4941228;29;20219;-93
2022/01/19 12:22:24;;;;;;;6.07;4.70;;;3.80;99.90;;;;;;4941396;29;20178;-92
2022/01/19 12:25:02;;;;;;;5.50;5.00;;;3.80;99.90;;;;;;4941342;29;20298;-92
2022/01/19 12:27:32;;;;;;;5.73;4.97;;;3.90;99.90;;;;;;4940843;29;20197;-93
2022/01/19 12:30:10;;;;;;;5.87;4.60;;;3.90;99.90;;;;;;4941685;29;20177;-93
2022/01/19 12:32:40;;;;;;;5.13;4.63;;;3.80;99.90;;;;;;4941124;29;20177;-94
2022/01/19 12:35:11;;;;;;;6.23;5.23;;;3.80;99.90;;;;;;4940691;29;20189;-93
2022/01/19 12:37:42;;;;;;;5.70;4.97;;;3.80;99.90;;;;;;4941014;29;20304;-92
2022/01/19 12:40:17;;;;;;;6.67;5.10;;;3.70;99.90;;;;;;4941052;29;20269;-93
2022/01/19 12:42:52;;;;;;;5.00;4.50;;;3.80;99.90;;;;;;4940801;29;20265;-94
2022/01/19 12:45:19;;;;;;;6.37;5.10;;;3.70;99.90;;;;;;4940452;29;20197;-94
2022/01/19 12:47:52;;;;;;;7.60;4.90;;;3.70;99.90;;;;;;4924720;29;20307;-95
2022/01/19 12:50:17;;;;;;;6.60;5.10;;;3.70;99.90;;;;;;4941369;29;20185;-93
2022/01/19 12:52:47;;;;;;;5.17;4.63;;;3.70;99.90;;;;;;4940254;29;20261;-93
2022/01/19 12:55:15;;;;;;;5.20;4.47;;;3.80;99.90;;;;;;4940461;29;20185;-92
2022/01/19 12:57:41;;;;;;;5.30;4.80;;;3.70;99.90;;;;;;4940448;29;20729;-93
2022/01/19 13:00:13;;;;;;;5.93;5.30;;;3.70;99.90;;;;;;4939657;29;20182;-94
2022/01/19 13:02:39;;;;;;;5.53;4.90;;;3.70;99.90;;;;;;4940168;29;20201;-93
2022/01/19 13:05:13;;;;;;;6.40;5.40;;;3.60;99.90;;;;;;4940342;29;20206;-93
2022/01/19 13:07:53;;;;;;;5.37;4.87;;;3.70;99.90;;;;;;4940416;29;20253;-94
2022/01/19 13:10:29;;;;;;;6.97;5.97;;;3.70;99.90;;;;;;4939843;29;20170;-91
2022/01/19 13:15:43;;;;;;;5.80;5.20;;;3.70;99.90;;;;;;4940440;29;20176;-93
2022/01/19 13:18:11;;;;;;;6.57;5.80;;;3.60;99.90;;;;;;4939690;29;20291;-93
2022/01/19 13:20:48;;;;;;;6.67;5.93;;;3.60;99.90;;;;;;4940141;29;20186;-92
2022/01/19 13:23:14;;;;;;;7.20;6.07;;;3.60;99.90;;;;;;4939775;29;20273;-93
2022/01/19 13:25:40;;;;;;;8.40;6.10;;;3.60;99.90;;;;;;4940231;29;20353;-93
2022/01/19 13:28:05;;;;;;;6.60;5.97;;;3.60;99.90;;;;;;4939863;29;20272;-92
2022/01/19 13:30:33;;;;;;;6.87;5.97;;;3.60;99.90;;;;;;4939605;29;20182;-91
2022/01/19 13:33:10;;;;;;;6.50;5.90;;;3.60;99.90;;;;;;4940612;29;20185;-92
2022/01/19 13:35:36;;;;;;;8.27;6.47;;;3.60;99.90;;;;;;4939447;29;20327;-92
2022/01/19 13:38:10;;;;;;;7.10;6.40;;;3.60;99.90;;;;;;4939587;29;20244;-92
2022/01/19 13:40:36;;;;;;;7.37;6.20;;;3.60;99.90;;;;;;4939942;29;20176;-93
2022/01/19 13:43:08;;;;;;;7.27;6.50;;;3.60;99.90;;;;;;4939611;29;20175;-93
2022/01/19 13:50:45;;;;;;;9.77;6.80;;;3.60;99.90;;;;;;4940010;29;20537;-93
2022/01/19 13:53:13;;;;;;;7.97;6.07;;;3.60;99.90;;;;;;4939586;29;20260;-93
2022/01/19 13:55:39;;;;;;;8.20;7.20;;;3.70;99.90;;;;;;4939258;29;20185;-92
2022/01/19 13:58:14;;;;;;;8.63;7.10;;;3.70;99.90;;;;;;4939060;29;20205;-92
2022/01/19 14:01:02;;;;;;;7.93;7.13;;;3.70;99.90;;;;;;4939100;29;20181;-91
2022/01/19 14:03:45;;;;;;;7.63;6.83;;;3.60;99.90;;;;;;4939690;29;20257;-93
2022/01/19 14:06:37;;;;;;;7.33;6.63;;;3.70;99.90;;;;;;4939088;29;20253;-91
2022/01/19 14:09:08;;;;;;;8.27;7.30;;;3.70;99.90;;;;;;4939171;29;20224;-93
2022/01/19 14:11:37;;;;;;;8.43;7.40;;;3.70;99.90;;;;;;4937960;29;20166;-92
2022/01/19 14:14:09;;;;;;;8.73;7.50;;;3.70;99.90;;;;;;4938762;29;20174;-91
2022/01/19 14:16:38;;;;;;;8.40;7.53;;;3.70;99.90;;;;;;4938911;29;20174;-92
2022/01/19 14:19:18;;;;;;;9.40;7.83;;;3.60;99.90;;;;;;4938492;29;20285;-91
2022/01/19 14:22:03;;;;;;;10.40;8.13;;;3.60;99.90;;;;;;4938151;29;20181;-92
2022/01/19 14:24:54;;;;;;;9.73;8.73;;;3.70;99.90;;;;;;4938401;29;20225;-92
2022/01/19 14:27:23;;;;;;;10.30;8.23;;;3.60;99.90;;;;;;4902376;29;20210;-93
2022/01/19 14:29:59;;;;;;;10.70;8.80;;;3.60;99.90;;;;;;4937743;29;20181;-92
2022/01/19 14:32:45;;;;;;;8.70;7.80;;;3.60;99.90;;;;;;4938125;29;20174;-93
2022/01/19 14:35:42;;;;;;;9.47;8.03;;;3.60;99.90;;;;;;4938508;29;20221;-93
2022/01/19 14:38:25;;;;;;;10.90;8.33;;;3.60;99.90;;;;;;4937553;29;20205;-93
2022/01/19 14:40:51;;;;;;;10.80;8.73;;;3.60;99.90;;;;;;4938275;29;20630;-93